Blocksburg, California
Current Conditions -  °F | °C
As of 10:55 AM on Wednesday 26 Nov 2014 (Local Time) from KFOT Reporting Station
Clear Clear  
Wind Chill: 63°   Ceiling: Unl
Heat Index: 63°   Visibility: 10mi
Dew Point: 52°   Wind: 7mph
Humidity: 68%   Direction: 130°SE
Pressure: 30.22"   Gusts: NA
Location:  40.28°N, 123.64°W
Report Text: KFOT 261855Z AUTO 13006KT 10SM CLR 17/11 A3022 RMK AO1
Loading
Personal Weather Stations






























Interactive Weather Map New forecast layout! Learn more

10-Day Weather Forecast

Advertisements
Track Severe Weather on mobile